Time;durP1;ratioP1;P1;durP2;ratioP2;P2;SDS_P1;SDS_P2;PMS_P1;PMS_P2;Temp;Humidity;BMP_temperature;BMP_pressure;BME280_temperature;BME280_humidity;BME280_pressure;Samples;Min_cycle;Max_cycle;Signal;HPM_P1;HPM_P2
2023/06/11 10:44:43;;;;;;;6.72;4.45;;;25.20;69.60;;;;;;6387062;27;20409;-74
2023/06/11 10:47:49;;;;;;;6.20;4.10;;;25.30;65.80;;;;;;6363877;28;20435;-74
2023/06/11 10:51:00;;;;;;;8.68;4.70;;;25.10;66.30;;;;;;6351856;28;20043;-74
2023/06/11 10:54:03;;;;;;;5.97;4.32;;;25.10;66.60;;;;;;6344216;28;20051;-75
2023/06/11 10:57:07;;;;;;;7.43;4.38;;;25.20;63.40;;;;;;6342814;28;20040;-75
2023/06/11 11:00:12;;;;;;;7.15;5.28;;;25.30;64.70;;;;;;6369903;28;20044;-75
2023/06/11 11:03:15;;;;;;;8.60;5.28;;;25.40;64.70;;;;;;6362343;27;20056;-75
2023/06/11 11:06:25;;;;;;;7.20;4.80;;;25.30;65.30;;;;;;6344293;28;20046;-75
2023/06/11 11:09:26;;;;;;;7.80;5.60;;;25.40;66.70;;;;;;6363993;27;20047;-75
2023/06/11 11:12:36;;;;;;;6.00;4.60;;;25.50;67.30;;;;;;6367988;28;20480;-75
2023/06/11 11:15:42;;;;;;;6.28;4.22;;;25.60;65.20;;;;;;6364503;27;20393;-74
2023/06/11 11:18:44;;;;;;;6.30;4.15;;;25.60;63.60;;;;;;6352043;27;20055;-74
2023/06/11 11:21:51;;;;;;;7.28;4.32;;;25.60;64.70;;;;;;6343425;28;20040;-74
2023/06/11 11:24:53;;;;;;;7.05;4.43;;;25.70;63.80;;;;;;6343894;28;20044;-78
2023/06/11 11:27:56;;;;;;;7.57;4.53;;;25.70;62.30;;;;;;6354356;28;20044;-79
2023/06/11 11:31:00;;;;;;;6.88;4.97;;;25.80;61.20;;;;;;6343405;28;20048;-79
2023/06/11 11:34:02;;;;;;;7.82;5.55;;;26.00;62.00;;;;;;6343321;28;20050;-78
2023/06/11 11:37:05;;;;;;;6.25;4.30;;;25.90;61.70;;;;;;6342747;28;20080;-78
2023/06/11 11:40:08;;;;;;;6.80;4.73;;;26.00;60.80;;;;;;6368684;28;20050;-79
2023/06/11 11:43:13;;;;;;;8.05;4.75;;;26.00;61.70;;;;;;6358083;27;20060;-78
2023/06/11 11:46:17;;;;;;;6.68;4.03;;;26.10;62.10;;;;;;6368619;27;20051;-78
2023/06/11 11:49:19;;;;;;;6.22;4.25;;;26.20;61.00;;;;;;6343545;28;20050;-78
2023/06/11 11:52:22;;;;;;;6.20;3.90;;;26.20;59.60;;;;;;6342782;28;20504;-78
2023/06/11 11:55:23;;;;;;;7.18;4.40;;;26.20;59.20;;;;;;6329546;28;20044;-78
2023/06/11 11:58:25;;;;;;;6.75;4.22;;;26.20;60.60;;;;;;6334501;28;20504;-78
2023/06/11 12:01:36;;;;;;;7.30;3.88;;;26.20;60.90;;;;;;6342625;28;20044;-78
2023/06/11 12:04:40;;;;;;;6.25;4.22;;;26.20;61.00;;;;;;6321552;28;20048;-79
2023/06/11 12:07:52;;;;;;;5.40;3.97;;;26.40;60.20;;;;;;6321435;28;20474;-79
2023/06/11 12:10:54;;;;;;;6.75;4.30;;;26.50;58.60;;;;;;6345757;28;20048;-79
2023/06/11 12:13:56;;;;;;;7.57;4.40;;;26.60;59.40;;;;;;6347735;28;20382;-81
2023/06/11 12:16:59;;;;;;;6.72;4.25;;;26.60;58.40;;;;;;6345309;28;20070;-80
2023/06/11 12:20:01;;;;;;;7.47;4.63;;;26.70;58.50;;;;;;6346947;28;20055;-81
2023/06/11 12:23:03;;;;;;;6.20;4.00;;;26.90;59.90;;;;;;6353885;28;20382;-82
2023/06/11 12:26:05;;;;;;;6.78;4.30;;;26.90;59.40;;;;;;6345098;28;20437;-81
2023/06/11 12:29:07;;;;;;;7.15;3.88;;;27.10;59.80;;;;;;6347102;28;20056;-82
2023/06/11 12:32:14;;;;;;;6.70;4.30;;;27.10;58.60;;;;;;6347569;28;20054;-81
2023/06/11 12:35:16;;;;;;;6.13;4.07;;;27.10;57.70;;;;;;6336941;28;20502;-81
2023/06/11 12:38:18;;;;;;;6.38;4.00;;;27.30;57.70;;;;;;6336590;28;20056;-81
2023/06/11 12:41:20;;;;;;;8.27;4.40;;;27.30;57.80;;;;;;6321675;28;20052;-81
2023/06/11 12:44:22;;;;;;;6.57;4.40;;;27.50;57.50;;;;;;6321415;28;20687;-81
2023/06/11 12:47:25;;;;;;;7.85;3.95;;;27.50;57.10;;;;;;6334165;28;20051;-81
2023/06/11 12:50:27;;;;;;;5.70;3.80;;;27.50;57.20;;;;;;6323842;28;20063;-81
2023/06/11 12:53:29;;;;;;;5.55;4.10;;;27.50;56.40;;;;;;6321608;28;20138;-81
2023/06/11 12:56:31;;;;;;;4.97;3.75;;;27.50;56.70;;;;;;6328149;28;20122;-81
2023/06/11 12:59:33;;;;;;;5.78;4.28;;;27.70;56.00;;;;;;6346866;28;20048;-82
2023/06/11 13:02:38;;;;;;;5.35;3.63;;;27.80;55.10;;;;;;6341430;28;20515;-81
2023/06/11 13:05:40;;;;;;;7.28;3.83;;;28.00;56.20;;;;;;6339564;28;20047;-82
2023/06/11 13:08:42;;;;;;;8.65;4.40;;;28.00;54.80;;;;;;6321090;28;20121;-82
2023/06/11 13:11:45;;;;;;;8.15;3.90;;;28.10;55.00;;;;;;6321525;28;20058;-82
2023/06/11 13:14:47;;;;;;;;;;;28.20;53.70;;;;;;6321222;28;20513;-80
2023/06/11 13:17:50;;;;;;;;;;;28.40;53.60;;;;;;6338557;28;19930;-80
2023/06/11 13:20:52;;;;;;;6.13;4.20;;;28.40;53.20;;;;;;6344060;28;20814;-81
2023/06/11 13:23:55;;;;;;;6.32;4.10;;;28.50;52.80;;;;;;6324591;28;20067;-82
2023/06/11 13:26:57;;;;;;;4.87;3.70;;;28.60;52.70;;;;;;6329184;28;20067;-82
2023/06/11 13:30:01;;;;;;;5.88;3.42;;;28.70;52.30;;;;;;6337351;28;20514;-82
2023/06/11 13:33:04;;;;;;;6.63;3.92;;;28.80;51.70;;;;;;6323035;28;20055;-82
2023/06/11 13:36:06;;;;;;;6.30;3.80;;;29.00;51.60;;;;;;6344422;28;20521;-84
2023/06/11 13:39:08;;;;;;;5.53;4.28;;;29.00;50.90;;;;;;6342121;28;20043;-84
2023/06/11 13:42:11;;;;;;;6.75;4.30;;;29.00;51.50;;;;;;6320930;28;20048;-83
2023/06/11 13:45:13;;;;;;;6.13;3.88;;;29.00;52.40;;;;;;6331204;28;20482;-83
2023/06/11 13:48:18;;;;;;;7.47;3.80;;;29.20;53.10;;;;;;6341378;28;20043;-83
2023/06/11 13:51:20;;;;;;;6.75;3.83;;;29.40;52.30;;;;;;6345090;28;20488;-84
2023/06/11 13:54:24;;;;;;;5.63;4.30;;;29.40;52.60;;;;;;6345386;28;20083;-84
2023/06/11 13:57:27;;;;;;;5.68;3.55;;;29.60;51.50;;;;;;6329372;28;20052;-81
2023/06/11 14:00:29;;;;;;;5.45;3.72;;;29.80;50.20;;;;;;6319881;28;20108;-80
2023/06/11 14:03:32;;;;;;;5.13;3.37;;;29.80;50.90;;;;;;6318856;28;20047;-81
2023/06/11 14:06:36;;;;;;;7.15;3.58;;;29.90;49.40;;;;;;6318236;28;20085;-80
2023/06/11 14:09:38;;;;;;;6.63;3.50;;;29.50;50.20;;;;;;6319730;28;20044;-81
2023/06/11 14:12:40;;;;;;;4.97;3.70;;;29.80;50.40;;;;;;6318914;28;20043;-81
2023/06/11 14:15:41;;;;;;;5.28;3.60;;;29.90;50.00;;;;;;6319469;28;20055;-81
2023/06/11 14:18:45;;;;;;;6.55;3.80;;;30.30;51.20;;;;;;6322242;28;20056;-82
2023/06/11 14:21:46;;;;;;;6.22;3.72;;;30.30;50.40;;;;;;6317692;28;20116;-80
2023/06/11 14:24:48;;;;;;;4.32;3.08;;;30.30;49.80;;;;;;6319047;28;20040;-81
2023/06/11 14:27:50;;;;;;;7.83;4.13;;;30.40;48.50;;;;;;6335147;28;20048;-80
2023/06/11 14:30:52;;;;;;;4.47;3.10;;;30.30;49.10;;;;;;6343981;28;20056;-82
2023/06/11 14:33:55;;;;;;;5.53;3.50;;;30.40;48.20;;;;;;6325515;28;20063;-79
2023/06/11 14:36:57;;;;;;;6.00;3.75;;;30.50;48.30;;;;;;6335703;28;20305;-79
2023/06/11 14:39:59;;;;;;;7.25;3.42;;;30.60;48.60;;;;;;6322604;28;20055;-79
2023/06/11 14:43:01;;;;;;;5.97;3.80;;;30.60;49.00;;;;;;6317929;28;20357;-79
2023/06/11 14:46:03;;;;;;;6.05;3.55;;;30.70;48.40;;;;;;6337928;28;20052;-79
2023/06/11 14:49:06;;;;;;;5.72;3.53;;;30.70;47.50;;;;;;6329184;28;20055;-79
2023/06/11 14:52:09;;;;;;;5.35;3.30;;;30.50;47.30;;;;;;6318086;28;20047;-79
2023/06/11 14:55:11;;;;;;;5.68;3.22;;;30.60;47.70;;;;;;6341224;28;20418;-79
2023/06/11 14:58:13;;;;;;;4.63;3.40;;;30.80;47.50;;;;;;6328627;28;20048;-79
2023/06/11 15:01:14;;;;;;;6.15;3.45;;;31.00;48.00;;;;;;6318600;28;20047;-78
2023/06/11 15:04:17;;;;;;;5.37;3.40;;;31.10;47.60;;;;;;6317409;28;20413;-79
2023/06/11 15:07:19;;;;;;;6.57;3.42;;;31.10;47.20;;;;;;6318749;28;20044;-79
2023/06/11 15:10:23;;;;;;;5.43;3.20;;;31.10;46.50;;;;;;6318484;28;20469;-80
2023/06/11 15:13:25;;;;;;;6.45;3.45;;;31.10;45.90;;;;;;6324159;28;20098;-79
2023/06/11 15:16:27;;;;;;;4.67;3.33;;;31.20;45.60;;;;;;6343886;28;20055;-79
2023/06/11 15:19:30;;;;;;;7.67;3.60;;;31.30;45.40;;;;;;6339067;28;20410;-79
2023/06/11 15:22:34;;;;;;;5.13;3.40;;;31.00;45.20;;;;;;6320405;28;20412;-78
2023/06/11 15:25:36;;;;;;;5.78;3.10;;;30.90;45.50;;;;;;6322239;28;20387;-79
2023/06/11 15:28:38;;;;;;;6.00;3.40;;;30.90;46.40;;;;;;6331366;28;20044;-78
2023/06/11 15:31:41;;;;;;;6.78;3.50;;;31.20;45.80;;;;;;6323217;28;20386;-78
2023/06/11 15:34:45;;;;;;;5.40;3.00;;;31.40;44.70;;;;;;6323201;28;20052;-78
2023/06/11 15:37:46;;;;;;;5.18;3.50;;;31.60;45.30;;;;;;6322349;28;20044;-78
2023/06/11 15:40:48;;;;;;;6.68;3.40;;;31.60;44.20;;;;;;6322659;28;20044;-78
2023/06/11 15:43:50;;;;;;;4.28;3.15;;;31.60;44.20;;;;;;6322856;28;20095;-77
2023/06/11 15:46:52;;;;;;;6.20;4.40;;;31.30;44.40;;;;;;6326681;28;20043;-78
2023/06/11 15:49:55;;;;;;;5.68;3.67;;;31.20;44.20;;;;;;6330646;28;20386;-78
2023/06/11 15:52:57;;;;;;;6.35;3.65;;;31.20;45.10;;;;;;6312079;28;20045;-77
2023/06/11 15:55:59;;;;;;;4.70;3.30;;;31.40;45.70;;;;;;6318208;28;20075;-77
2023/06/11 15:59:01;;;;;;;5.68;3.72;;;31.40;45.20;;;;;;6342576;28;20047;-78
2023/06/11 16:02:03;;;;;;;6.13;3.57;;;31.10;45.10;;;;;;6317271;28;20048;-78
2023/06/11 16:05:08;;;;;;;5.32;3.80;;;31.20;45.10;;;;;;6323064;28;20096;-78
2023/06/11 16:08:10;;;;;;;5.28;3.45;;;31.60;44.60;;;;;;6338598;28;20055;-78
2023/06/11 16:11:12;;;;;;;5.63;3.50;;;31.60;45.00;;;;;;6300970;28;20040;-77
2023/06/11 16:14:14;;;;;;;6.53;3.93;;;31.40;45.30;;;;;;6310284;28;20052;-78
2023/06/11 16:17:16;;;;;;;5.18;3.92;;;31.50;45.60;;;;;;6322943;28;20044;-80
2023/06/11 16:20:19;;;;;;;6.45;3.92;;;31.60;45.20;;;;;;6340999;28;20048;-78
2023/06/11 16:23:22;;;;;;;6.28;3.60;;;31.60;45.50;;;;;;6345603;28;20051;-78
2023/06/11 16:26:24;;;;;;;4.93;3.70;;;31.50;45.00;;;;;;6328189;28;20047;-78
2023/06/11 16:29:26;;;;;;;5.85;4.10;;;31.40;44.80;;;;;;6321912;28;20044;-78
2023/06/11 16:32:29;;;;;;;5.93;3.50;;;31.50;45.40;;;;;;6330744;28;20496;-78
2023/06/11 16:35:32;;;;;;;7.32;4.20;;;31.50;45.60;;;;;;6346827;28;20434;-77
2023/06/11 16:38:34;;;;;;;5.25;3.67;;;31.70;45.40;;;;;;6346621;28;20066;-79
2023/06/11 16:41:36;;;;;;;7.10;3.92;;;31.70;44.60;;;;;;6345348;28;20047;-78
2023/06/11 16:44:37;;;;;;;5.27;3.80;;;31.80;44.90;;;;;;6340363;28;20245;-79
2023/06/11 16:47:39;;;;;;;5.27;3.90;;;31.90;44.90;;;;;;6308732;28;20048;-78
2023/06/11 16:50:42;;;;;;;5.90;3.70;;;31.60;45.10;;;;;;6321258;28;20097;-78
2023/06/11 16:53:44;;;;;;;5.03;3.60;;;31.70;44.90;;;;;;6318283;28;20145;-79
2023/06/11 16:56:46;;;;;;;6.67;3.77;;;32.00;44.80;;;;;;6321042;28;20055;-78
2023/06/11 16:59:49;;;;;;;5.43;3.60;;;32.10;45.00;;;;;;6319948;28;20051;-78
2023/06/11 17:02:54;;;;;;;5.53;3.90;;;32.00;45.10;;;;;;6322002;28;20039;-78
2023/06/11 17:05:57;;;;;;;5.05;3.60;;;31.70;44.90;;;;;;6307388;28;20068;-79
2023/06/11 17:08:59;;;;;;;6.22;3.58;;;31.80;44.70;;;;;;6313186;28;20055;-79
2023/06/11 17:12:01;;;;;;;6.40;3.80;;;31.70;45.00;;;;;;6320591;28;20044;-78
2023/06/11 17:15:03;;;;;;;6.70;3.53;;;31.70;44.90;;;;;;6316744;28;20052;-79
2023/06/11 17:18:05;;;;;;;6.47;3.80;;;31.50;44.90;;;;;;6260270;28;20053;-80
2023/06/11 17:21:08;;;;;;;6.20;3.35;;;31.60;44.20;;;;;;6253848;28;20059;-80
2023/06/11 17:24:12;;;;;;;5.80;3.53;;;31.60;44.50;;;;;;6249884;28;20057;-78
2023/06/11 17:27:13;;;;;;;7.38;3.78;;;31.40;44.30;;;;;;6231764;28;20519;-76
2023/06/11 17:30:15;;;;;;;5.10;3.30;;;31.60;44.90;;;;;;6234795;28;20045;-78
2023/06/11 17:33:19;;;;;;;5.00;3.40;;;31.60;44.70;;;;;;6222697;28;20057;-78
2023/06/11 17:36:22;;;;;;;6.18;3.17;;;31.60;44.80;;;;;;6233306;28;20690;-78
2023/06/11 17:39:24;;;;;;;6.10;3.70;;;31.70;44.60;;;;;;6269884;28;20761;-78
2023/06/11 17:42:26;;;;;;;4.97;3.30;;;31.60;44.50;;;;;;6269374;28;20106;-80
2023/06/11 17:45:29;;;;;;;5.63;3.30;;;31.70;44.10;;;;;;6260258;28;20041;-77
2023/06/11 17:48:30;;;;;;;8.07;3.72;;;31.70;43.50;;;;;;6269126;28;20064;-78
2023/06/11 17:51:34;;;;;;;14.80;5.43;;;31.60;44.50;;;;;;6268896;28;20048;-78
2023/06/11 17:54:36;;;;;;;4.82;3.45;;;31.80;45.60;;;;;;6265329;28;20164;-78
2023/06/11 17:57:38;;;;;;;6.50;3.80;;;31.90;43.80;;;;;;6269890;28;20045;-78
2023/06/11 18:00:39;;;;;;;5.50;3.80;;;31.60;44.80;;;;;;6268812;28;20064;-77
2023/06/11 18:03:41;;;;;;;4.35;3.05;;;31.80;45.80;;;;;;6269578;28;20056;-78
2023/06/11 18:06:45;;;;;;;5.10;3.57;;;32.00;45.50;;;;;;6259978;28;20758;-80
2023/06/11 18:09:46;;;;;;;4.78;3.13;;;31.90;46.30;;;;;;6244979;28;20088;-79
2023/06/11 18:12:48;;;;;;;6.25;3.10;;;31.90;45.30;;;;;;6244209;28;20052;-78
2023/06/11 18:15:50;;;;;;;5.43;3.70;;;31.70;45.10;;;;;;6243342;28;20419;-79
2023/06/11 18:18:52;;;;;;;6.10;3.53;;;31.20;45.50;;;;;;6244267;28;20057;-76
2023/06/11 18:21:55;;;;;;;5.70;3.80;;;31.10;46.00;;;;;;6241283;28;20186;-78
2023/06/11 18:24:57;;;;;;;5.90;3.50;;;31.20;46.30;;;;;;6244078;28;20042;-78
2023/06/11 18:27:59;;;;;;;5.82;3.17;;;31.20;46.40;;;;;;6244485;28;20060;-79
2023/06/11 18:31:01;;;;;;;5.18;3.30;;;31.20;46.30;;;;;;6259230;28;20060;-79
2023/06/11 18:34:04;;;;;;;4.82;3.33;;;31.20;46.60;;;;;;6243988;28;20072;-80
2023/06/11 18:37:07;;;;;;;5.72;3.45;;;31.10;47.30;;;;;;6240861;28;20049;-81
2023/06/11 18:40:10;;;;;;;6.85;3.67;;;30.90;47.10;;;;;;6240680;28;20053;-80
2023/06/11 18:43:12;;;;;;;8.95;3.80;;;30.90;47.30;;;;;;6241020;28;20066;-81
2023/06/11 18:46:15;;;;;;;5.17;3.30;;;30.80;48.10;;;;;;6243835;28;20044;-80
2023/06/11 18:49:16;;;;;;;5.47;3.58;;;30.70;47.80;;;;;;6249309;28;20048;-78
2023/06/11 18:52:20;;;;;;;6.40;3.60;;;30.60;48.10;;;;;;6238947;28;20064;-78
2023/06/11 18:55:23;;;;;;;6.43;3.30;;;30.50;47.90;;;;;;6240812;28;20064;-77
2023/06/11 18:58:25;;;;;;;7.68;3.55;;;30.30;48.50;;;;;;6239951;28;20407;-78
2023/06/11 19:01:27;;;;;;;6.32;3.47;;;30.20;49.40;;;;;;6241043;28;20052;-78
2023/06/11 19:04:29;;;;;;;5.68;3.30;;;30.10;49.80;;;;;;6242143;28;20053;-78
2023/06/11 19:07:33;;;;;;;7.03;3.30;;;30.00;49.70;;;;;;6248010;28;20053;-78
2023/06/11 19:10:35;;;;;;;5.47;3.25;;;29.90;49.40;;;;;;6235921;28;20052;-77
2023/06/11 19:13:39;;;;;;;4.53;3.38;;;29.60;51.40;;;;;;6247913;28;20049;-78
2023/06/11 19:16:43;;;;;;;5.25;3.60;;;29.40;49.90;;;;;;6244076;28;20064;-78
2023/06/11 19:19:45;;;;;;;4.90;3.78;;;29.20;50.40;;;;;;6245683;28;20049;-78
2023/06/11 19:22:48;;;;;;;4.75;3.50;;;29.10;50.70;;;;;;6243663;28;20045;-78
2023/06/11 19:25:50;;;;;;;5.40;3.67;;;29.00;50.90;;;;;;6244934;28;20080;-78
2023/06/11 19:28:52;;;;;;;6.00;3.67;;;28.80;50.80;;;;;;6245350;28;20520;-78
2023/06/11 19:31:54;;;;;;;7.07;3.88;;;28.80;51.10;;;;;;6244657;28;20682;-79
2023/06/11 19:34:56;;;;;;;5.60;3.90;;;28.70;51.30;;;;;;6245041;28;20745;-79
2023/06/11 19:38:00;;;;;;;9.48;4.00;;;28.50;51.40;;;;;;6245003;28;20331;-77
2023/06/11 19:41:02;;;;;;;6.22;3.78;;;28.40;51.90;;;;;;6251728;28;20056;-78
2023/06/11 19:44:04;;;;;;;8.63;3.60;;;28.20;52.40;;;;;;6249720;28;20085;-72
2023/06/11 19:47:07;;;;;;;6.13;3.65;;;28.10;53.10;;;;;;6243893;28;20096;-73
2023/06/11 19:50:10;;;;;;;7.28;4.10;;;27.90;52.40;;;;;;6244582;28;20049;-73
2023/06/11 19:53:13;;;;;;;6.15;3.63;;;27.60;53.70;;;;;;6248275;28;20463;-73
2023/06/11 19:56:18;;;;;;;5.55;4.05;;;27.60;55.00;;;;;;6246859;28;20054;-73
2023/06/11 19:59:20;;;;;;;5.38;3.92;;;27.30;54.30;;;;;;6249231;28;20375;-78
2023/06/11 20:02:22;;;;;;;5.47;3.63;;;27.20;54.30;;;;;;6250168;28;20048;-79
2023/06/11 20:05:24;;;;;;;6.40;3.50;;;27.00;54.50;;;;;;6258043;28;20061;-79
2023/06/11 20:08:27;;;;;;;5.22;3.75;;;26.90;54.40;;;;;;6247476;28;20490;-78
2023/06/11 20:11:29;;;;;;;7.10;4.03;;;26.80;54.70;;;;;;6247316;28;20100;-78
2023/06/11 20:14:31;;;;;;;7.55;4.40;;;26.80;55.20;;;;;;6259047;28;20410;-72
2023/06/11 20:17:33;;;;;;;4.70;3.67;;;26.70;55.50;;;;;;6251324;28;20533;-79
2023/06/11 20:20:35;;;;;;;6.63;3.97;;;26.60;56.60;;;;;;6245825;28;20491;-79
2023/06/11 20:23:38;;;;;;;6.07;3.80;;;26.40;56.20;;;;;;6246489;28;20045;-79
2023/06/11 20:26:40;;;;;;;7.20;4.07;;;26.30;56.80;;;;;;6247364;28;20060;-78
2023/06/11 20:29:42;;;;;;;5.15;4.07;;;26.20;56.00;;;;;;6247738;28;20046;-79
2023/06/11 20:32:44;;;;;;;5.32;3.88;;;25.90;56.60;;;;;;6246168;28;20049;-80
2023/06/11 20:35:45;;;;;;;7.13;4.18;;;25.80;57.20;;;;;;6247730;28;20075;-79
2023/06/11 20:38:49;;;;;;;7.53;4.15;;;25.70;57.70;;;;;;6248971;28;20053;-79
2023/06/11 20:41:53;;;;;;;5.95;4.00;;;25.70;58.10;;;;;;6249921;28;20037;-79
2023/06/11 20:44:54;;;;;;;6.57;4.03;;;25.50;58.80;;;;;;6251816;28;20506;-79
2023/06/11 20:47:56;;;;;;;6.47;4.15;;;25.50;59.60;;;;;;6249510;28;20048;-80
2023/06/11 20:50:58;;;;;;;6.18;4.20;;;25.50;58.70;;;;;;6249190;28;20065;-80
2023/06/11 20:54:01;;;;;;;7.68;4.43;;;25.40;60.30;;;;;;6252722;28;20067;-80
2023/06/11 20:57:03;;;;;;;;;;;25.30;60.70;;;;;;6264067;28;20056;-80
2023/06/11 21:00:08;;;;;;;5.10;3.80;;;25.20;61.20;;;;;;6250270;28;19921;-80
2023/06/11 21:03:10;;;;;;;7.68;4.35;;;25.10;61.90;;;;;;6249278;28;20506;-79
2023/06/11 21:06:12;;;;;;;8.50;4.30;;;25.00;61.80;;;;;;6249263;28;20042;-80
2023/06/11 21:09:15;;;;;;;9.45;4.50;;;24.90;62.90;;;;;;6249092;28;20048;-81
2023/06/11 21:12:17;;;;;;;;;;;24.80;63.00;;;;;;6249778;28;20045;-81
2023/06/11 21:15:19;;;;;;;6.50;3.80;;;24.80;62.00;;;;;;6249397;28;20268;-78
2023/06/11 21:18:21;;;;;;;5.87;4.10;;;24.70;62.70;;;;;;6249390;28;20049;-78
2023/06/11 21:21:23;;;;;;;6.40;4.30;;;24.50;63.30;;;;;;6248215;28;20311;-77
2023/06/11 21:24:26;;;;;;;6.35;4.35;;;24.30;62.40;;;;;;6248914;28;20053;-79
2023/06/11 21:27:28;;;;;;;;;;;24.20;64.80;;;;;;6248791;28;20053;-78
2023/06/11 21:30:30;;;;;;;6.40;4.03;;;24.20;63.90;;;;;;6249648;28;19928;-78
2023/06/11 21:33:31;;;;;;;5.50;4.38;;;24.10;64.80;;;;;;6250651;28;20045;-78
2023/06/11 21:36:33;;;;;;;7.88;4.50;;;24.00;65.20;;;;;;6256467;28;20411;-78
2023/06/11 21:39:36;;;;;;;6.10;4.15;;;23.90;63.90;;;;;;6248340;28;20502;-78
2023/06/11 21:42:38;;;;;;;6.22;4.45;;;23.80;65.10;;;;;;6247972;28;20053;-79
2023/06/11 21:45:40;;;;;;;5.38;3.97;;;23.80;66.10;;;;;;6248887;28;20515;-78
2023/06/11 21:48:42;;;;;;;5.82;4.20;;;23.70;66.10;;;;;;6236985;28;20053;-79
2023/06/11 21:51:44;;;;;;;5.55;4.43;;;23.70;65.60;;;;;;6249045;28;20049;-78
2023/06/11 21:54:48;;;;;;;5.78;4.13;;;23.60;65.50;;;;;;6247724;28;20052;-79
2023/06/11 21:57:50;;;;;;;;;;;23.50;66.00;;;;;;6248621;28;20048;-79
2023/06/11 22:00:52;;;;;;;6.43;4.47;;;23.40;63.20;;;;;;6248899;28;19921;-79
2023/06/11 22:03:53;;;;;;;6.95;4.45;;;23.20;65.60;;;;;;6256093;28;20049;-79
2023/06/11 22:06:56;;;;;;;8.52;4.53;;;23.20;66.80;;;;;;6252156;28;20057;-78
2023/06/11 22:09:59;;;;;;;8.73;4.72;;;23.10;64.50;;;;;;6248255;28;20049;-81
2023/06/11 22:13:01;;;;;;;6.88;4.43;;;23.10;63.70;;;;;;6248181;28;20041;-78
2023/06/11 22:16:02;;;;;;;6.88;4.50;;;22.90;66.70;;;;;;6247148;28;20411;-81
2023/06/11 22:19:04;;;;;;;5.65;4.40;;;22.80;67.30;;;;;;6248032;28;20050;-80
2023/06/11 22:22:10;;;;;;;6.97;4.32;;;22.90;66.70;;;;;;6248108;28;20049;-79
2023/06/11 22:25:13;;;;;;;5.85;4.22;;;22.80;67.20;;;;;;6250747;28;20072;-79
2023/06/11 22:28:15;;;;;;;6.47;4.70;;;22.90;67.70;;;;;;6250611;28;20050;-81
2023/06/11 22:31:17;;;;;;;7.45;4.63;;;22.80;66.70;;;;;;6263843;28;20041;-82
2023/06/11 22:34:19;;;;;;;7.43;4.45;;;22.70;66.80;;;;;;6247659;28;20037;-82
2023/06/11 22:37:21;;;;;;;5.65;4.13;;;22.70;66.70;;;;;;6251994;28;20411;-80
2023/06/11 22:40:25;;;;;;;5.85;4.38;;;22.60;67.40;;;;;;6247890;28;20056;-81
2023/06/11 22:43:26;;;;;;;6.60;4.20;;;22.60;67.70;;;;;;6247438;28;20049;-80
2023/06/11 22:46:28;;;;;;;8.43;4.32;;;22.40;68.30;;;;;;6248014;28;20050;-80
2023/06/11 22:49:31;;;;;;;6.20;4.40;;;22.20;69.10;;;;;;6247181;28;20052;-80
2023/06/11 22:52:38;;;;;;;5.20;4.00;;;22.10;69.70;;;;;;6247766;28;20049;-79
2023/06/11 22:55:41;;;;;;;6.90;4.30;;;22.00;69.20;;;;;;6270325;28;20128;-80
2023/06/11 22:58:43;;;;;;;6.05;4.38;;;21.80;69.60;;;;;;6259704;28;20385;-80
2023/06/11 23:01:45;;;;;;;6.20;4.25;;;21.60;69.80;;;;;;6246820;28;20060;-80
2023/06/11 23:04:46;;;;;;;7.85;4.85;;;21.60;69.10;;;;;;6247196;28;20072;-80
2023/06/11 23:07:49;;;;;;;7.03;4.40;;;21.60;68.20;;;;;;6246587;28;20056;-80
2023/06/11 23:10:52;;;;;;;6.00;4.30;;;21.50;68.60;;;;;;6247251;28;20506;-81
2023/06/11 23:13:54;;;;;;;6.57;4.60;;;21.40;69.10;;;;;;6250186;28;20056;-80
2023/06/11 23:16:57;;;;;;;8.23;4.70;;;21.40;70.20;;;;;;6247200;28;20053;-81
2023/06/11 23:20:01;;;;;;;6.03;4.43;;;21.20;70.50;;;;;;6256313;28;20048;-80
2023/06/11 23:23:05;;;;;;;7.35;4.55;;;21.10;71.10;;;;;;6269120;28;20051;-79
2023/06/11 23:26:09;;;;;;;7.75;4.60;;;21.10;70.00;;;;;;6246861;28;20388;-80
2023/06/11 23:29:12;;;;;;;6.97;4.63;;;21.00;71.40;;;;;;6246969;28;20045;-80
2023/06/11 23:32:14;;;;;;;5.80;4.55;;;21.00;71.90;;;;;;6246929;28;20053;-80
2023/06/11 23:35:17;;;;;;;6.15;4.40;;;21.00;71.30;;;;;;6245997;28;20060;-81
2023/06/11 23:38:19;;;;;;;6.47;5.05;;;20.90;72.40;;;;;;6246499;28;20081;-81
2023/06/11 23:41:22;;;;;;;6.50;4.70;;;20.80;71.60;;;;;;6247277;28;20042;-79
2023/06/11 23:44:24;;;;;;;6.40;4.88;;;20.80;71.30;;;;;;6246896;28;20053;-80
2023/06/11 23:47:30;;;;;;;7.50;4.80;;;20.60;71.70;;;;;;6245045;28;20048;-80
2023/06/11 23:50:32;;;;;;;6.85;4.50;;;20.60;69.60;;;;;;6229746;28;20399;-80
2023/06/11 23:53:34;;;;;;;6.68;4.20;;;20.60;71.90;;;;;;6251336;28;20049;-80
2023/06/11 23:56:38;;;;;;;6.75;4.53;;;20.50;72.70;;;;;;6250701;28;20050;-80
2023/06/11 23:59:40;;;;;;;7.97;4.70;;;20.40;70.50;;;;;;6255189;28;20053;-81
